MOL Explorer — 3EKT8 — position and weather

sailwx.info

Track history (hours):
 
Tides and Currents Weather Stations Pressure Air Temp Water Temp Dewpoint Dewpoint Depression Visibility Wind Speed Wind Dir Waves Ship Positions

MOL Explorer

Last reported at 2016-Jul-17 15:33 UTC. Time now 2016-Jul-28 18:22 UTC.
Position N 01°52' E 102°27'.
Warning: this ship's position is 11 days out of date.

Length 293 m; draft 11.5 m.

Type: Ship (hazmat cat A). MMSI: 372827000.

Date/timePositionNaut miles runAvg speedWind from/ knotsBaromVisibWave heightAir tempDewpointWater temp
2016-Jul-17 15:33N 01°52' E 102°27'1212.2
2016-Jul-17 14:31N 01°47' E 102°38'1111.8
2016-Jul-17 13:33N 01°42' E 102°48'6411.7
2016-Jul-17 08:07N 01°09' E 103°43'710.8
2016-Jul-17 07:30N 01°11' E 103°49'5 5.2
2016-Jul-17 06:33N 01°16' E 103°51'0 0.0
2016-Jul-17 04:32N 01°16' E 103°51'0 0.0
2016-Jul-17 03:32N 01°16' E 103°51'0 0.0
2016-Jul-17 02:29N 01°16' E 103°51'0 0.0
2016-Jul-17 01:29N 01°16' E 103°51'0 0.0
2016-Jul-17 00:29N 01°16' E 103°51'0 0.0
2016-Jul-16 23:32N 01°16' E 103°51'0 0.0
2016-Jul-16 22:29N 01°16' E 103°51'0 0.0
2016-Jul-16 21:29N 01°16' E 103°51'0 0.0
2016-Jul-16 20:32N 01°16' E 103°51'0 0.0
2016-Jul-16 19:29N 01°16' E 103°51'0 0.0
2016-Jul-16 18:29N 01°16' E 103°51'0 0.0
2016-Jul-16 17:29N 01°16' E 103°51'0 0.0
2016-Jul-16 16:29N 01°16' E 103°51'0 0.1
2016-Jul-16 15:34N 01°16' E 103°51'1 1.0
2016-Jul-16 14:33N 01°15' E 103°52'3 2.8
2016-Jul-16 13:33N 01°14' E 103°54'8 8.3
2016-Jul-16 12:33N 01°16' E 104°02'  
2016-Jul-12 22:06N 22°20' E 114°08'1 0.1
2016-Jul-12 15:33N 22°19' E 114°07'  
2016-Jul-08 11:26N 34°59' E 139°39'1516.8
2016-Jul-08 10:33N 35°12' E 139°46'1211.9
2016-Jul-08 09:33N 35°24' E 139°42'1211.9
2016-Jul-08 08:33N 35°34' E 139°48'3 2.9
2016-Jul-08 07:33N 35°36' E 139°46'0 0.0
2016-Jul-08 06:33N 35°36' E 139°46'0 0.0
2016-Jul-08 04:33N 35°36' E 139°46'0 0.0
2016-Jul-08 03:33N 35°36' E 139°46'0 0.0
2016-Jul-08 02:33N 35°36' E 139°46'0 0.0
2016-Jul-08 01:33N 35°36' E 139°46'0 0.0
2016-Jul-08 00:33N 35°36' E 139°46'0 0.0
2016-Jul-07 23:33N 35°36' E 139°46'0 0.0
2016-Jul-07 22:33N 35°36' E 139°46'0 0.0
2016-Jul-07 21:33N 35°36' E 139°46'0 0.0
2016-Jul-07 20:33N 35°36' E 139°46'0 0.0
2016-Jul-07 19:33N 35°36' E 139°46'0 0.0
2016-Jul-07 18:33N 35°36' E 139°46'0 0.0
2016-Jul-07 17:33N 35°36' E 139°46'0 0.0
2016-Jul-07 16:33N 35°36' E 139°46'  
Track history (hours):
 
Tides and Currents Weather Stations Pressure Air Temp Water Temp Dewpoint Dewpoint Depression Visibility Wind Speed Wind Dir Waves Ship Positions

MOL Explorer

Last reported at 2016-Jul-17 15:33 UTC. Time now 2016-Jul-28 18:22 UTC.
Position N 01°52' E 102°27'.
Warning: this ship's position is 11 days out of date.

Length 293 m; draft 11.5 m.

Type: Ship (hazmat cat A). MMSI: 372827000.

Date/timePositionNaut miles runAvg speedWind from/ knotsBaromVisibWave heightAir tempDewpointWater temp
2016-Jul-17 15:33N 01°52' E 102°27'1212.2
2016-Jul-17 14:31N 01°47' E 102°38'1111.8
2016-Jul-17 13:33N 01°42' E 102°48'6411.7
2016-Jul-17 08:07N 01°09' E 103°43'710.8
2016-Jul-17 07:30N 01°11' E 103°49'5 5.2
2016-Jul-17 06:33N 01°16' E 103°51'0 0.0
2016-Jul-17 04:32N 01°16' E 103°51'0 0.0
2016-Jul-17 03:32N 01°16' E 103°51'0 0.0
2016-Jul-17 02:29N 01°16' E 103°51'0 0.0
2016-Jul-17 01:29N 01°16' E 103°51'0 0.0
2016-Jul-17 00:29N 01°16' E 103°51'0 0.0
2016-Jul-16 23:32N 01°16' E 103°51'0 0.0
2016-Jul-16 22:29N 01°16' E 103°51'0 0.0
2016-Jul-16 21:29N 01°16' E 103°51'0 0.0
2016-Jul-16 20:32N 01°16' E 103°51'0 0.0
2016-Jul-16 19:29N 01°16' E 103°51'0 0.0
2016-Jul-16 18:29N 01°16' E 103°51'0 0.0
2016-Jul-16 17:29N 01°16' E 103°51'0 0.0
2016-Jul-16 16:29N 01°16' E 103°51'0 0.1
2016-Jul-16 15:34N 01°16' E 103°51'1 1.0
2016-Jul-16 14:33N 01°15' E 103°52'3 2.8
2016-Jul-16 13:33N 01°14' E 103°54'8 8.3
2016-Jul-16 12:33N 01°16' E 104°02'  
2016-Jul-12 22:06N 22°20' E 114°08'1 0.1
2016-Jul-12 15:33N 22°19' E 114°07'  
2016-Jul-08 11:26N 34°59' E 139°39'1516.8
2016-Jul-08 10:33N 35°12' E 139°46'1211.9
2016-Jul-08 09:33N 35°24' E 139°42'1211.9
2016-Jul-08 08:33N 35°34' E 139°48'3 2.9
2016-Jul-08 07:33N 35°36' E 139°46'0 0.0
2016-Jul-08 06:33N 35°36' E 139°46'0 0.0
2016-Jul-08 04:33N 35°36' E 139°46'0 0.0
2016-Jul-08 03:33N 35°36' E 139°46'0 0.0
2016-Jul-08 02:33N 35°36' E 139°46'0 0.0
2016-Jul-08 01:33N 35°36' E 139°46'0 0.0
2016-Jul-08 00:33N 35°36' E 139°46'0 0.0
2016-Jul-07 23:33N 35°36' E 139°46'0 0.0
2016-Jul-07 22:33N 35°36' E 139°46'0 0.0
2016-Jul-07 21:33N 35°36' E 139°46'0 0.0
2016-Jul-07 20:33N 35°36' E 139°46'0 0.0
2016-Jul-07 19:33N 35°36' E 139°46'0 0.0
2016-Jul-07 18:33N 35°36' E 139°46'0 0.0
2016-Jul-07 17:33N 35°36' E 139°46'0 0.0
2016-Jul-07 16:33N 35°36' E 139°46'  

Dump ship's entire track history